Terminal Aerodrome Forecast
Issued by NWS

Home | Current Version | Previous Version | Text Only | Print | Product List | Glossary On
Versions: 1 2 3 4 5 6 7 8 9 10 11 12 13
000
FTUS44 KEPZ 250520
TAFLRU
TAF
KLRU 250520Z 2506/2606 07006KT P6SM FEW100 SCT140 SCT250
     FM251400 10008KT P6SM SKC
     FM252000 09007KT P6SM FEW100 SCT140
     FM260400 12007KT P6SM SCT100 SCT140 BKN250=

USA.gov is the U.S. government's official web portal to all federal, state and local government web resources and services.